Weather History for KCIU - March, 2013

Change the Weather History Date:

Friday, March 22, 2013

  Actual Average Record
Temperature  
Mean Temperature 26 °F -  
Max Temperature 33 °F 38 °F 57 °F (2012)
Min Temperature 19 °F 16 °F -16 °F (1989)
Degree Days  
Heating Degree Days 39    
Moisture  
Dew Point 21 °F    
Average Humidity 82    
Maximum Humidity 100    
Minimum Humidity 60    
Precipitation  
Precipitation 0.00 in - - ()
Sea Level Pressure  
Sea Level Pressure 29.91 in    
Wind  
Wind Speed 11 mph (NW)    
Max Wind Speed 18 mph    
Max Gust Speed 25 mph    
Visibility 10 miles    
Events      
Averages and records for this station are not official NWS values.
T = Trace of Precipitation, MM = Missing Value Source: NWS Daily Summary

Daily Weather History Graph

Daily Weather History Graph

Search for Another Location

Airport or City:

Trip Planner

Search our weather history database for the weather conditions in past years. The results will help you decide how hot, cold, wet, or windy it might be!

Date:

Astronomy

Mar. 22, 2013 Rise Set
Actual Time 7:36 AM EDT 7:53 PM EDT
Civil Twilight 7:06 AM EDT 8:23 PM EDT
Nautical Twilight 6:31 AM EDT 8:59 PM EDT
Astronomical Twilight 5:54 AM EDT 9:35 PM EDT
Moon 3:06 PM EDT (3/22) 4:50 AM EDT (3/22)
Length of Visible Light 13h 17m
Length of Day
12h 17m
Waxing Gibbous, 77% of the Moon is Illuminated
Mar 22
Waxing Gibbous
Mar 27
Full
Apr 3
Last Quarter
Apr 10
New
Apr 18
First Quarter

Hourly Weather History & Observations

Time (EDT) Temp. Windchill Dew Point Humidity Pressure Visibility Wind Dir Wind Speed Gust Speed Precip Events Conditions
12:15 AM 24.8 °F 12.4 °F 21.2 °F 86% 29.84 in 10.0 mi WNW 15.0 mph - N/A   Overcast
12:35 AM 24.8 °F 13.4 °F 21.2 °F 86% 29.84 in 10.0 mi WNW 12.7 mph - N/A   Overcast
12:55 AM 24.8 °F 15.3 °F 21.2 °F 86% 29.84 in 10.0 mi WNW 9.2 mph - N/A   Overcast
1:15 AM 24.8 °F 16.1 °F 21.2 °F 86% 29.84 in 10.0 mi WNW 8.1 mph - N/A   Overcast
1:35 AM 24.8 °F 19.1 °F 21.2 °F 86% 29.84 in 10.0 mi West 4.6 mph - N/A   Overcast
1:55 AM 24.8 °F 15.3 °F 23.0 °F 93% 29.84 in 10.0 mi NW 9.2 mph - N/A   Overcast
2:15 AM 26.6 °F 16.2 °F 23.0 °F 86% 29.84 in 10.0 mi NNW 11.5 mph - N/A   Overcast
2:35 AM 26.6 °F 15.7 °F 23.0 °F 86% 29.84 in 10.0 mi NNW 12.7 mph 17.3 mph N/A   Overcast
2:55 AM 26.6 °F 16.8 °F 21.2 °F 80% 29.85 in 10.0 mi NNW 10.4 mph - N/A   Overcast
3:15 AM 26.6 °F 16.8 °F 21.2 °F 80% 29.85 in 10.0 mi NNW 10.4 mph - N/A   Overcast
3:35 AM 24.8 °F 14.6 °F 19.4 °F 80% 29.85 in 10.0 mi NNW 10.4 mph - N/A   Overcast
3:55 AM 23.0 °F 13.9 °F 19.4 °F 86% 29.86 in 10.0 mi NW 8.1 mph - N/A   Mostly Cloudy
4:15 AM 23.0 °F 14.7 °F 19.4 °F 86% 29.86 in 10.0 mi NW 6.9 mph - N/A   Overcast
4:35 AM 21.2 °F 11.7 °F 19.4 °F 93% 29.86 in 10.0 mi NNW 8.1 mph - N/A   Mostly Cloudy
4:55 AM 21.2 °F 11.7 °F 19.4 °F 93% 29.86 in 10.0 mi NNW 8.1 mph - N/A   Mostly Cloudy
5:15 AM 19.4 °F 10.4 °F 17.6 °F 93% 29.87 in 10.0 mi NW 6.9 mph - N/A   Mostly Cloudy
5:35 AM 19.4 °F 11.5 °F 17.6 °F 93% 29.87 in 10.0 mi NW 5.8 mph - N/A   Scattered Clouds
5:55 AM 19.4 °F 9.5 °F 17.6 °F 93% 29.87 in 10.0 mi NNW 8.1 mph - N/A   Mostly Cloudy
6:15 AM 19.4 °F 10.4 °F 17.6 °F 93% 29.87 in 10.0 mi NNW 6.9 mph - N/A   Overcast
6:35 AM 19.4 °F 10.4 °F 17.6 °F 93% 29.88 in 10.0 mi NNW 6.9 mph - N/A   Overcast
6:55 AM 19.4 °F 12.8 °F 17.6 °F 93% 29.89 in 10.0 mi NW 4.6 mph - N/A   Overcast
7:15 AM 19.4 °F 11.5 °F 17.6 °F 93% 29.89 in 10.0 mi West 5.8 mph - N/A   Overcast
7:35 AM 19.4 °F 14.3 °F 17.6 °F 93% 29.90 in 10.0 mi NW 3.5 mph - N/A   Overcast
7:55 AM 19.4 °F 11.5 °F 17.6 °F 93% 29.90 in 10.0 mi NNW 5.8 mph - N/A   Overcast
8:15 AM 21.2 °F 13.6 °F 17.6 °F 86% 29.91 in 10.0 mi NW 5.8 mph - N/A   Overcast
8:35 AM 21.2 °F 13.6 °F 17.6 °F 86% 29.91 in 10.0 mi WNW 5.8 mph - N/A   Overcast
8:55 AM 21.2 °F 13.6 °F 17.6 °F 86% 29.91 in 10.0 mi WNW 5.8 mph - N/A   Overcast
9:15 AM 23.0 °F 13.9 °F 19.4 °F 86% 29.90 in 10.0 mi WNW 8.1 mph - N/A   Overcast
9:35 AM 24.8 °F 14.6 °F 19.4 °F 80% 29.90 in 10.0 mi NW 10.4 mph - N/A   Overcast
9:55 AM 24.8 °F 15.3 °F 21.2 °F 86% 29.91 in 10.0 mi NW 9.2 mph - N/A   Overcast
10:15 AM 26.6 °F 16.8 °F 21.2 °F 80% 29.91 in 0.2 mi WNW 10.4 mph - N/A   Overcast
10:35 AM 26.6 °F 15.2 °F 21.2 °F 80% 29.91 in 10.0 mi WNW 13.8 mph - N/A   Overcast
10:55 AM 28.4 °F 19.7 °F 23.0 °F 80% 29.91 in 10.0 mi WNW 9.2 mph - N/A   Overcast
11:15 AM 30.2 °F 20.8 °F 23.0 °F 75% 29.90 in 10.0 mi NW 11.5 mph - N/A   Mostly Cloudy
11:35 AM 30.2 °F 20.2 °F 23.0 °F 75% 29.90 in 10.0 mi NW 12.7 mph - N/A   Mostly Cloudy
11:55 AM 30.2 °F 21.3 °F 23.0 °F 75% 29.91 in 10.0 mi WNW 10.4 mph - N/A   Overcast
12:15 PM 30.2 °F 19.8 °F 23.0 °F 75% 29.90 in 10.0 mi NW 13.8 mph 17.3 mph N/A   Overcast
12:35 PM 32.0 °F 23.0 °F 23.0 °F 69% 29.91 in 10.0 mi NW 11.5 mph - N/A   Mostly Cloudy
12:55 PM 33.8 °F 23.9 °F 21.2 °F 60% 29.90 in 10.0 mi NW 15.0 mph - N/A   Mostly Cloudy
1:15 PM 32.0 °F 20.8 °F 23.0 °F 69% 29.90 in 10.0 mi WNW 17.3 mph - N/A   Overcast
1:35 PM 32.0 °F 22.1 °F 21.2 °F 64% 29.90 in 10.0 mi NW 13.8 mph 18.4 mph N/A   Overcast
1:55 PM 32.0 °F 23.6 °F 21.2 °F 64% 29.91 in 10.0 mi WNW 10.4 mph - N/A   Overcast
2:15 PM 32.0 °F 24.2 °F 21.2 °F 64% 29.90 in 10.0 mi WNW 9.2 mph - N/A   Overcast
2:35 PM 32.0 °F 23.0 °F 21.2 °F 64% 29.90 in 10.0 mi NW 11.5 mph - N/A   Overcast
2:55 PM 32.0 °F 20.8 °F 21.2 °F 64% 29.90 in 10.0 mi NW 17.3 mph 21.9 mph N/A   Overcast
3:15 PM 30.2 °F 20.2 °F 24.8 °F 80% 29.91 in 10.0 mi NW 12.7 mph 20.7 mph N/A   Overcast
3:35 PM 30.2 °F 19.3 °F 24.8 °F 80% 29.91 in 10.0 mi NNW 15.0 mph - N/A   Overcast
3:55 PM 30.2 °F 18.1 °F 24.8 °F 80% 29.91 in 10.0 mi NW 18.4 mph - N/A   Overcast
4:15 PM 30.2 °F 18.5 °F 24.8 °F 80% 29.91 in 10.0 mi NW 17.3 mph 25.3 mph N/A   Overcast
4:35 PM 30.2 °F 19.3 °F 24.8 °F 80% 29.91 in 10.0 mi NW 15.0 mph - N/A   Mostly Cloudy
4:55 PM 30.2 °F 18.9 °F 23.0 °F 75% 29.91 in 10.0 mi WNW 16.1 mph 20.7 mph N/A   Scattered Clouds
5:15 PM 30.2 °F 19.3 °F 23.0 °F 75% 29.91 in 10.0 mi NW 15.0 mph - N/A   Partly Cloudy
5:35 PM 30.2 °F 20.2 °F 23.0 °F 75% 29.91 in 10.0 mi WNW 12.7 mph - N/A   Clear
5:55 PM 30.2 °F 18.1 °F 21.2 °F 69% 29.92 in 10.0 mi NW 18.4 mph - N/A   Clear
6:15 PM 30.2 °F 20.8 °F 23.0 °F 75% 29.93 in 10.0 mi NW 11.5 mph - N/A   Clear
6:35 PM 30.2 °F 18.9 °F 21.2 °F 69% 29.93 in 10.0 mi NW 16.1 mph - N/A   Clear
6:55 PM 28.4 °F 16.6 °F 21.2 °F 74% 29.94 in 10.0 mi WNW 16.1 mph 21.9 mph N/A   Clear
7:15 PM 28.4 °F 16.6 °F 21.2 °F 74% 29.94 in 10.0 mi WNW 16.1 mph - N/A   Clear
7:35 PM 28.4 °F 17.5 °F 21.2 °F 74% 29.95 in 10.0 mi NW 13.8 mph - N/A   Clear
7:55 PM 26.6 °F 13.8 °F 21.2 °F 80% 29.95 in 10.0 mi NW 17.3 mph - N/A   Clear
8:15 PM 26.6 °F 16.8 °F 21.2 °F 80% 29.96 in 10.0 mi WNW 10.4 mph - N/A   Clear
8:35 PM 24.8 °F 14.6 °F 21.2 °F 86% 29.97 in 10.0 mi WNW 10.4 mph - N/A   Clear
8:55 PM 24.8 °F 14.0 °F 21.2 °F 86% 29.97 in 10.0 mi NW 11.5 mph - N/A   Clear
9:15 PM 24.8 °F 14.6 °F 21.2 °F 86% 29.98 in 10.0 mi NW 10.4 mph - N/A   Partly Cloudy
9:35 PM 24.8 °F 14.6 °F 21.2 °F 86% 29.99 in 10.0 mi NW 10.4 mph 16.1 mph N/A   Mostly Cloudy
9:55 PM 24.8 °F 14.6 °F 21.2 °F 86% 30.00 in 10.0 mi WNW 10.4 mph - N/A   Overcast
10:15 PM 24.8 °F 14.6 °F 21.2 °F 86% 29.99 in 10.0 mi NW 10.4 mph - N/A   Overcast
10:35 PM 24.8 °F 15.3 °F 21.2 °F 86% 30.00 in 10.0 mi NW 9.2 mph - N/A   Overcast
10:55 PM 24.8 °F 16.1 °F 21.2 °F 86% 30.00 in 10.0 mi WNW 8.1 mph - N/A   Mostly Cloudy
11:15 PM 24.8 °F 15.3 °F 21.2 °F 86% 30.00 in 10.0 mi WNW 9.2 mph - N/A   Partly Cloudy
11:35 PM 23.0 °F 13.1 °F 21.2 °F 93% 30.00 in 10.0 mi WNW 9.2 mph - N/A   Scattered Clouds
11:55 PM 23.0 °F 12.4 °F 23.0 °F 100% 30.00 in 10.0 mi NW 10.4 mph - N/A   Mostly Cloudy